createdAt,value
2023-04-07T00:01:15.740Z,99010.94
2023-04-07T00:03:45.712Z,99011.41
2023-04-07T00:06:14.979Z,99010.56
2023-04-07T00:08:45.242Z,99011.16
2023-04-07T00:11:15.042Z,99020.25
2023-04-07T00:13:44.078Z,99024.25
2023-04-07T00:16:13.567Z,99023.31
2023-04-07T00:18:42.621Z,99030.44
2023-04-07T00:21:11.981Z,99029.06
2023-04-07T00:23:41.479Z,99031.03
2023-04-07T00:26:10.966Z,99035.63
2023-04-07T00:28:41.503Z,99033.97
2023-04-07T00:31:10.946Z,99033.22
2023-04-07T00:33:40.184Z,99040.13
2023-04-07T00:36:09.706Z,99041.78
2023-04-07T00:38:40.020Z,99045.72
2023-04-07T00:41:09.595Z,99046.75
2023-04-07T00:43:38.728Z,99049.09
2023-04-07T00:46:08.933Z,99047.13
2023-04-07T00:48:39.187Z,99057.16
2023-04-07T00:51:08.888Z,99056.94
2023-04-07T00:53:38.578Z,99048.53
2023-04-07T00:56:08.719Z,99051.66
2023-04-07T00:58:37.806Z,99056.31
2023-04-07T01:01:14.862Z,99060.16
2023-04-07T01:03:45.303Z,99071.13
2023-04-07T01:06:19.568Z,99068.81
2023-04-07T01:08:55.271Z,99067.06
2023-04-07T01:11:34.470Z,99071.72
2023-04-07T01:14:05.270Z,99071.88
2023-04-07T01:16:59.786Z,99075.38
2023-04-07T01:20:08.917Z,99072.31
2023-04-07T01:22:47.616Z,99075.59
2023-04-07T01:25:25.139Z,99085.16
2023-04-07T01:27:55.549Z,99082.09
2023-04-07T01:30:25.684Z,99086.16
2023-04-07T01:32:56.707Z,99093.72
2023-04-07T01:35:27.703Z,99096.75
2023-04-07T01:37:59.129Z,99092.91
2023-04-07T01:40:30.278Z,99092.53
2023-04-07T01:43:02.012Z,99096.69
2023-04-07T01:45:35.086Z,99096.78
2023-04-07T01:48:08.347Z,99099.78
2023-04-07T01:50:37.762Z,99104.31
2023-04-07T01:53:09.023Z,99109.88
2023-04-07T01:55:39.700Z,99110.13
2023-04-07T01:58:11.611Z,99106.66
2023-04-07T02:00:44.689Z,99113.59
2023-04-07T02:03:25.196Z,99121.47
2023-04-07T02:05:59.409Z,99123.06
2023-04-07T02:08:34.159Z,99123.28
2023-04-07T02:11:05.309Z,99119.41
2023-04-07T02:13:40.171Z,99118.78
2023-04-07T02:16:13.972Z,99116.34
2023-04-07T02:18:45.176Z,99116.19
2023-04-07T02:21:17.240Z,99120.72
2023-04-07T02:23:48.678Z,99117.34
2023-04-07T02:26:18.378Z,99118.50
2023-04-07T02:28:47.557Z,99126.91
2023-04-07T02:31:19.537Z,99122.22
2023-04-07T02:33:48.751Z,99127.81
2023-04-07T02:36:18.702Z,99134.88
2023-04-07T02:38:47.740Z,99135.88
2023-04-07T02:41:17.180Z,99138.38
2023-04-07T02:43:47.264Z,99130.78
2023-04-07T02:46:17.968Z,99135.69
2023-04-07T02:48:47.504Z,99141.31
2023-04-07T02:51:16.849Z,99141.41
2023-04-07T02:53:46.568Z,99134.13
2023-04-07T02:56:16.487Z,99142.50
2023-04-07T02:58:46.047Z,99142.53
2023-04-07T03:01:16.049Z,99145.47
2023-04-07T03:03:46.293Z,99143.91
2023-04-07T03:06:23.265Z,99150.44
2023-04-07T03:09:13.368Z,99145.03
2023-04-07T03:11:43.020Z,99149.34
2023-04-07T03:14:12.342Z,99159.94
2023-04-07T03:16:47.628Z,99152.59
2023-04-07T03:19:18.117Z,99156.41
2023-04-07T03:21:51.077Z,99163.47
2023-04-07T03:24:20.401Z,99165.34
2023-04-07T03:26:49.738Z,99164.19
2023-04-07T03:29:25.856Z,99177.91
2023-04-07T03:31:55.605Z,99174.38
2023-04-07T03:34:26.917Z,99172.78
2023-04-07T03:36:59.931Z,99176.28
2023-04-07T03:39:31.503Z,99166.09
2023-04-07T03:42:03.735Z,99184.81
2023-04-07T03:44:35.523Z,99194.28
2023-04-07T03:47:04.784Z,99191.06
2023-04-07T03:49:35.450Z,99192.13
2023-04-07T03:52:05.051Z,99192.94
2023-04-07T03:54:36.657Z,99196.16
2023-04-07T03:57:05.938Z,99193.97
2023-04-07T03:59:40.318Z,99206.47
2023-04-07T04:02:09.929Z,99203.72
2023-04-07T04:04:40.176Z,99203.44
2023-04-07T04:07:11.087Z,99202.38
2023-04-07T04:09:50.795Z,99205.84
2023-04-07T04:12:20.887Z,99205.56
2023-04-07T04:15:01.998Z,99211.22
2023-04-07T04:17:32.518Z,99212.19
2023-04-07T04:20:02.179Z,99208.03
2023-04-07T04:22:43.006Z,99209.88
2023-04-07T04:25:13.859Z,99216.34
2023-04-07T04:27:48.712Z,99217.66
2023-04-07T04:30:22.102Z,99215.31
2023-04-07T04:32:59.524Z,99216.72
2023-04-07T04:35:47.707Z,99213.91
2023-04-07T04:38:21.596Z,99210.31
2023-04-07T04:40:59.514Z,99209.75
2023-04-07T04:43:33.001Z,99207.16
2023-04-07T04:46:03.916Z,99211.91
2023-04-07T04:48:38.443Z,99212.28
2023-04-07T04:51:10.056Z,99211.13
2023-04-07T04:53:45.867Z,99212.28
2023-04-07T04:56:16.024Z,99214.19
2023-04-07T04:58:48.489Z,99212.00
2023-04-07T05:01:26.699Z,99219.66
2023-04-07T05:04:04.884Z,99204.34
2023-04-07T05:06:35.048Z,99212.16
2023-04-07T05:09:09.431Z,99216.09
2023-04-07T05:11:45.786Z,99223.88
2023-04-07T05:14:15.164Z,99210.69
2023-04-07T05:16:50.776Z,99215.13
2023-04-07T05:19:24.154Z,99210.31
2023-04-07T05:21:57.492Z,99218.59
2023-04-07T05:24:30.736Z,99209.50
2023-04-07T05:27:03.302Z,99212.41
2023-04-07T05:29:33.720Z,99211.47
2023-04-07T05:32:04.709Z,99211.78
2023-04-07T05:34:34.282Z,99212.69
2023-04-07T05:37:03.390Z,99219.38
2023-04-07T05:39:33.513Z,99218.16
2023-04-07T05:42:07.982Z,99215.41
2023-04-07T05:44:38.988Z,99208.31
2023-04-07T05:47:10.209Z,99202.41
2023-04-07T05:49:47.102Z,99207.97
2023-04-07T05:52:17.280Z,99206.47
2023-04-07T05:54:53.129Z,99199.50
2023-04-07T05:57:24.045Z,99211.56
2023-04-07T05:59:54.020Z,99207.56
2023-04-07T06:02:24.427Z,99201.53
2023-04-07T06:04:55.017Z,99202.03
2023-04-07T06:07:24.657Z,99199.63
2023-04-07T06:10:11.139Z,99196.69
2023-04-07T06:12:40.835Z,99200.94
2023-04-07T06:15:10.904Z,99197.22
2023-04-07T06:17:40.843Z,99194.78
2023-04-07T06:20:10.521Z,99201.44
2023-04-07T06:22:40.469Z,99195.22
2023-04-07T06:25:10.589Z,99187.94
2023-04-07T06:27:40.445Z,99188.47
2023-04-07T06:30:11.351Z,99180.41
2023-04-07T06:32:41.516Z,99177.31
2023-04-07T06:35:11.099Z,99178.50
2023-04-07T06:37:40.634Z,99181.38
2023-04-07T06:40:10.289Z,99171.84
2023-04-07T06:42:39.588Z,99169.13
2023-04-07T06:45:17.747Z,99172.69
2023-04-07T06:47:47.134Z,99172.50
2023-04-07T06:50:16.806Z,99172.66
2023-04-07T06:52:46.312Z,99172.06
2023-04-07T06:55:16.792Z,99165.72
2023-04-07T06:57:46.050Z,99161.88
2023-04-07T07:00:16.281Z,99156.56
2023-04-07T07:02:46.590Z,99154.03
2023-04-07T07:05:16.449Z,99153.09
2023-04-07T07:07:46.213Z,99152.81
2023-04-07T07:10:16.301Z,99146.84
2023-04-07T07:12:45.789Z,99136.22
2023-04-07T07:15:15.143Z,99142.59
2023-04-07T07:17:45.297Z,99138.03
2023-04-07T07:20:15.240Z,99131.53
2023-04-07T07:22:44.863Z,99137.41
2023-04-07T07:25:14.770Z,99131.03
2023-04-07T07:27:44.096Z,99119.78
2023-04-07T07:30:13.314Z,99126.81
2023-04-07T07:32:42.798Z,99128.19
2023-04-07T07:35:12.365Z,99125.28
2023-04-07T07:37:41.623Z,99122.00
2023-04-07T07:40:10.973Z,99116.53
2023-04-07T07:42:40.460Z,99110.41
2023-04-07T07:45:10.518Z,99114.38
2023-04-07T07:47:43.159Z,99112.78
2023-04-07T07:50:13.552Z,99109.13
2023-04-07T07:52:42.809Z,99099.91
2023-04-07T07:55:12.446Z,99096.91
2023-04-07T07:57:42.022Z,99089.88
2023-04-07T08:00:12.417Z,99088.84
2023-04-07T08:02:44.809Z,99092.19
2023-04-07T08:05:14.474Z,99087.53
2023-04-07T08:07:44.627Z,99088.38
2023-04-07T08:10:14.537Z,99079.31
2023-04-07T08:12:43.632Z,99078.66
2023-04-07T08:15:13.344Z,99078.66
2023-04-07T08:17:42.615Z,99067.88
2023-04-07T08:20:13.095Z,99072.66
2023-04-07T08:22:42.686Z,99062.06
2023-04-07T08:25:12.315Z,99068.47
2023-04-07T08:27:41.550Z,99060.28
2023-04-07T08:30:11.476Z,99050.97
2023-04-07T08:32:46.096Z,99049.94
2023-04-07T08:35:16.062Z,99041.09
2023-04-07T08:37:45.480Z,99032.56
2023-04-07T08:40:15.205Z,99034.06
2023-04-07T08:42:48.565Z,99032.34
2023-04-07T08:45:19.831Z,99036.16
2023-04-07T08:47:51.140Z,99028.28
2023-04-07T08:50:24.479Z,99028.28
2023-04-07T08:52:58.807Z,99017.63
2023-04-07T08:55:28.866Z,99017.97
2023-04-07T08:58:01.614Z,99012.06
2023-04-07T09:00:33.130Z,99008.81
2023-04-07T09:03:04.566Z,99011.69
2023-04-07T09:05:35.311Z,99007.00
2023-04-07T09:08:05.316Z,99001.06
2023-04-07T09:10:34.829Z,98994.22
2023-04-07T09:13:04.209Z,98997.13
2023-04-07T09:15:33.773Z,98989.69
2023-04-07T09:18:04.596Z,98985.00
2023-04-07T09:21:04.593Z,98992.81
2023-04-07T09:23:38.633Z,98985.25
2023-04-07T09:26:23.314Z,98978.00
2023-04-07T09:29:00.797Z,98975.59
2023-04-07T09:31:49.654Z,98977.81
2023-04-07T09:34:30.727Z,98968.88
2023-04-07T09:37:00.624Z,98973.22
2023-04-07T09:39:30.782Z,98971.13
2023-04-07T09:42:00.596Z,98964.72
2023-04-07T09:44:29.712Z,98961.66
2023-04-07T09:47:01.896Z,98960.84
2023-04-07T09:49:31.707Z,98953.75
2023-04-07T09:52:06.338Z,98954.22
2023-04-07T09:54:37.609Z,98948.75
2023-04-07T09:57:09.062Z,98948.78
2023-04-07T09:59:42.178Z,98954.69
2023-04-07T10:02:11.917Z,98946.13
2023-04-07T10:04:42.566Z,98948.59
2023-04-07T10:07:11.681Z,98935.06
2023-04-07T10:09:41.074Z,98935.69
2023-04-07T10:12:10.284Z,98937.00
2023-04-07T10:14:40.315Z,98939.00
2023-04-07T10:17:10.178Z,98935.56
2023-04-07T10:19:40.253Z,98932.50
2023-04-07T10:22:09.712Z,98926.47
2023-04-07T10:25:00.052Z,98923.91
2023-04-07T10:27:38.737Z,98920.38
2023-04-07T10:30:14.096Z,98915.22
2023-04-07T10:32:51.436Z,98918.47
2023-04-07T10:35:22.539Z,98920.19
2023-04-07T10:38:11.938Z,98924.22
2023-04-07T10:40:43.132Z,98925.47
2023-04-07T10:43:13.259Z,98920.09
2023-04-07T10:45:53.462Z,98915.75
2023-04-07T10:48:23.850Z,98912.22
2023-04-07T10:51:11.973Z,98905.63
2023-04-07T10:54:24.116Z,98905.94
2023-04-07T10:57:15.305Z,98901.91
2023-04-07T11:00:22.098Z,98904.94
2023-04-07T11:02:53.066Z,98907.00
2023-04-07T11:05:24.654Z,98904.88
2023-04-07T11:08:00.525Z,98906.72
2023-04-07T11:10:30.013Z,98901.88
2023-04-07T11:13:05.241Z,98903.63
2023-04-07T11:15:40.692Z,98895.72
2023-04-07T11:18:23.312Z,98890.28
2023-04-07T11:21:01.639Z,98893.00
2023-04-07T11:23:39.484Z,98895.03
2023-04-07T11:26:10.068Z,98891.19
2023-04-07T11:28:56.727Z,98895.97
2023-04-07T11:31:32.506Z,98891.06
2023-04-07T11:34:06.772Z,98894.41
2023-04-07T11:36:40.638Z,98897.06
2023-04-07T11:39:23.598Z,98891.72
2023-04-07T11:41:53.372Z,98890.28
2023-04-07T11:44:23.126Z,98893.75
2023-04-07T11:46:59.868Z,98896.91
2023-04-07T11:49:29.728Z,98895.88
2023-04-07T11:52:08.371Z,98888.91
2023-04-07T11:54:55.976Z,98893.66
2023-04-07T11:57:31.459Z,98898.53
2023-04-07T12:00:27.223Z,98894.91
2023-04-07T12:02:57.842Z,98889.53
2023-04-07T12:05:27.925Z,98888.94
2023-04-07T12:07:58.838Z,98890.69
2023-04-07T12:10:28.664Z,98884.06
2023-04-07T12:12:59.403Z,98886.06
2023-04-07T12:15:28.968Z,98885.66
2023-04-07T12:17:58.893Z,98881.59
2023-04-07T12:20:29.117Z,98880.50
2023-04-07T12:23:01.215Z,98883.91
2023-04-07T12:25:30.611Z,98878.84
2023-04-07T12:27:59.942Z,98891.97
2023-04-07T12:30:29.504Z,98892.66
2023-04-07T12:32:58.897Z,98889.94
2023-04-07T12:35:28.219Z,98886.50
2023-04-07T12:37:57.954Z,98886.34
2023-04-07T12:40:31.153Z,98882.69
2023-04-07T12:43:00.281Z,98890.72
2023-04-07T12:45:32.225Z,98885.56
2023-04-07T12:48:02.237Z,98885.22
2023-04-07T12:50:31.960Z,98889.63
2023-04-07T12:53:04.799Z,98883.66
2023-04-07T12:55:34.728Z,98889.28
2023-04-07T12:58:04.473Z,98888.56
2023-04-07T13:00:33.776Z,98891.38
2023-04-07T13:03:03.454Z,98884.69
2023-04-07T13:05:32.873Z,98891.59
2023-04-07T13:08:02.739Z,98888.47
2023-04-07T13:10:32.495Z,98896.47
2023-04-07T13:13:01.607Z,98891.09
2023-04-07T13:15:31.237Z,98888.53
2023-04-07T13:18:01.360Z,98890.75
2023-04-07T13:20:31.868Z,98897.88
2023-04-07T13:23:08.298Z,98898.03
2023-04-07T13:25:39.783Z,98892.47
2023-04-07T13:28:09.283Z,98898.81
2023-04-07T13:30:38.595Z,98903.81
2023-04-07T13:33:08.138Z,98902.81
2023-04-07T13:35:37.461Z,98903.44
2023-04-07T13:38:06.864Z,98897.81
2023-04-07T13:40:36.989Z,98891.66
2023-04-07T13:43:07.460Z,98906.31
2023-04-07T13:45:37.501Z,98904.53
2023-04-07T13:48:06.951Z,98906.22
2023-04-07T13:50:38.487Z,98900.53
2023-04-07T13:53:08.049Z,98911.97
2023-04-07T13:55:38.053Z,98907.34
2023-04-07T13:58:07.565Z,98908.19
2023-04-07T14:00:39.618Z,98916.34
2023-04-07T14:03:09.659Z,98917.50
2023-04-07T14:05:39.364Z,98911.53
2023-04-07T14:08:08.534Z,98919.69
2023-04-07T14:10:38.098Z,98922.16
2023-04-07T14:13:08.015Z,98922.47
2023-04-07T14:15:37.659Z,98924.91
2023-04-07T14:18:07.436Z,98927.09
2023-04-07T14:20:36.796Z,98934.44
2023-04-07T14:23:06.139Z,98929.56
2023-04-07T14:25:36.081Z,98942.56
2023-04-07T14:28:05.499Z,98942.56
2023-04-07T14:30:39.999Z,98942.31
2023-04-07T14:33:10.090Z,98941.50
2023-04-07T14:35:40.573Z,98944.75
2023-04-07T14:38:09.859Z,98946.41
2023-04-07T14:40:39.557Z,98946.91
2023-04-07T14:43:09.676Z,98951.81
2023-04-07T14:45:40.756Z,98956.13
2023-04-07T14:48:10.966Z,98963.69
2023-04-07T14:50:42.370Z,98961.00
2023-04-07T14:53:11.829Z,98962.09
2023-04-07T14:55:42.516Z,98961.84
2023-04-07T14:58:11.870Z,98973.19
2023-04-07T15:00:41.950Z,98974.56
2023-04-07T15:03:11.487Z,98983.75
2023-04-07T15:05:41.044Z,98979.97
2023-04-07T15:08:10.744Z,98988.06
2023-04-07T15:10:41.004Z,98987.78
2023-04-07T15:13:10.196Z,98992.09
2023-04-07T15:15:39.637Z,98986.69
2023-04-07T15:18:09.081Z,98998.88
2023-04-07T15:20:38.767Z,98994.53
2023-04-07T15:23:07.868Z,98995.28
2023-04-07T15:25:37.209Z,98999.09
2023-04-07T15:28:06.685Z,99000.72
2023-04-07T15:30:37.162Z,98998.25
2023-04-07T15:33:07.187Z,99005.28
2023-04-07T15:35:36.823Z,99007.16
2023-04-07T15:38:07.334Z,99003.91
2023-04-07T15:40:40.833Z,99014.16
2023-04-07T15:43:12.551Z,99006.59
2023-04-07T15:45:46.016Z,99006.31
2023-04-07T15:48:16.127Z,99012.78
2023-04-07T15:50:48.506Z,99015.75
2023-04-07T15:53:17.992Z,99010.34
2023-04-07T15:55:47.364Z,99012.19
2023-04-07T15:58:16.820Z,99022.22
2023-04-07T16:00:46.921Z,99015.72
2023-04-07T16:03:16.495Z,99016.25
2023-04-07T16:05:45.708Z,99022.72
2023-04-07T16:08:16.087Z,99022.41
2023-04-07T16:13:16.641Z,99022.06
2023-04-07T16:15:46.032Z,99019.88
2023-04-07T16:18:15.305Z,99021.22
2023-04-07T16:20:45.146Z,99024.97
2023-04-07T16:23:14.241Z,99025.53
2023-04-07T16:25:43.636Z,99012.53
2023-04-07T16:28:13.208Z,99031.97
2023-04-07T16:30:43.956Z,99030.63
2023-04-07T16:33:14.351Z,99025.19
2023-04-07T16:35:43.429Z,99019.78
2023-04-07T16:38:12.692Z,99021.09
2023-04-07T16:41:02.850Z,99030.78
2023-04-07T16:43:33.159Z,99023.81
2023-04-07T16:46:03.295Z,99018.66
2023-04-07T16:48:32.809Z,99025.13
2023-04-07T16:51:02.298Z,99020.06
2023-04-07T16:53:32.180Z,99019.06
2023-04-07T16:56:01.959Z,99016.09
2023-04-07T16:58:31.345Z,99029.34
2023-04-07T17:01:00.815Z,99024.66
2023-04-07T17:03:30.798Z,99030.59
2023-04-07T17:06:06.727Z,99030.78
2023-04-07T17:08:38.096Z,99028.09
2023-04-07T17:11:08.667Z,99025.91
2023-04-07T17:13:38.953Z,99028.31
2023-04-07T17:16:13.189Z,99024.25
2023-04-07T17:18:42.687Z,99025.03
2023-04-07T17:21:11.750Z,99029.09
2023-04-07T17:23:41.629Z,99027.44
2023-04-07T17:26:10.966Z,99031.22
2023-04-07T17:28:40.359Z,99022.00
2023-04-07T17:31:09.797Z,99022.53
2023-04-07T17:33:39.312Z,99027.13
2023-04-07T17:36:08.698Z,99029.81
2023-04-07T17:38:38.661Z,99023.31
2023-04-07T17:41:08.807Z,99024.91
2023-04-07T17:43:38.358Z,99019.75
2023-04-07T17:46:07.787Z,99020.59
2023-04-07T17:48:38.039Z,99016.53
2023-04-07T17:51:09.119Z,99027.84
2023-04-07T17:53:38.292Z,99018.94
2023-04-07T17:56:07.731Z,99021.88
2023-04-07T17:58:37.044Z,99014.53
2023-04-07T18:01:09.329Z,99013.72
2023-04-07T18:03:39.516Z,99014.78
2023-04-07T18:06:09.824Z,99019.94
2023-04-07T18:08:39.751Z,99013.41
2023-04-07T18:11:09.789Z,99018.53
2023-04-07T18:13:39.557Z,99017.72
2023-04-07T18:16:10.709Z,99016.31
2023-04-07T18:18:40.680Z,99012.84
2023-04-07T18:21:10.597Z,99015.53
2023-04-07T18:23:41.401Z,99014.72
2023-04-07T18:26:11.815Z,99014.72
2023-04-07T18:28:42.882Z,99012.84
2023-04-07T18:31:14.067Z,99013.84
2023-04-07T18:33:43.879Z,99002.22
2023-04-07T18:36:15.233Z,99011.94
2023-04-07T18:38:45.794Z,99010.53
2023-04-07T18:41:16.950Z,99010.81
2023-04-07T18:43:50.353Z,99008.38
2023-04-07T18:46:20.020Z,99009.19
2023-04-07T18:48:50.174Z,99005.63
2023-04-07T18:51:20.298Z,99006.72
2023-04-07T18:53:50.624Z,98998.06
2023-04-07T18:56:23.056Z,99002.63
2023-04-07T18:58:52.851Z,99003.97
2023-04-07T19:01:23.330Z,99003.41
2023-04-07T19:03:53.946Z,98995.56
2023-04-07T19:06:24.485Z,99000.16
2023-04-07T19:08:54.477Z,98990.16
2023-04-07T19:11:23.943Z,98986.94
2023-04-07T19:13:57.900Z,98986.94
2023-04-07T19:16:28.220Z,98992.56
2023-04-07T19:18:58.712Z,98988.28
2023-04-07T19:21:28.932Z,98988.28
2023-04-07T19:24:01.178Z,98985.28
2023-04-07T19:26:31.830Z,98982.34
2023-04-07T19:29:01.797Z,98988.28
2023-04-07T19:31:32.683Z,98988.28
2023-04-07T19:34:02.419Z,98987.13
2023-04-07T19:36:32.621Z,98984.94
2023-04-07T19:39:02.174Z,98990.59
2023-04-07T19:41:31.805Z,98985.97
2023-04-07T19:44:02.346Z,98991.88
2023-04-07T19:46:34.374Z,98991.00
2023-04-07T19:49:04.409Z,98992.31
2023-04-07T19:51:34.287Z,98991.41
2023-04-07T19:54:03.930Z,98991.69
2023-04-07T19:56:33.536Z,98984.38
2023-04-07T19:59:03.817Z,98986.19
2023-04-07T20:01:34.017Z,98983.50
2023-04-07T20:04:04.618Z,98988.31
2023-04-07T20:06:37.770Z,98978.06
2023-04-07T20:09:07.687Z,98980.16
2023-04-07T20:11:37.599Z,98990.16
2023-04-07T20:14:07.054Z,98984.19
2023-04-07T20:16:37.446Z,98986.00
2023-04-07T20:19:07.195Z,98981.38
2023-04-07T20:21:37.877Z,98983.59
2023-04-07T20:24:07.799Z,98982.47
2023-04-07T20:26:36.868Z,98990.03
2023-04-07T20:29:07.424Z,98986.00
2023-04-07T20:31:36.680Z,98991.66
2023-04-07T20:34:06.781Z,98989.50
2023-04-07T20:36:36.704Z,98988.22
2023-04-07T20:39:06.753Z,98987.94
2023-04-07T20:41:35.881Z,98990.41
2023-04-07T20:44:05.734Z,98982.56
2023-04-07T20:46:35.220Z,98985.53
2023-04-07T20:49:08.815Z,98988.53
2023-04-07T20:51:38.329Z,98982.00
2023-04-07T20:54:07.729Z,98982.56
2023-04-07T20:56:38.049Z,98995.47
2023-04-07T20:59:07.635Z,98991.41
2023-04-07T21:01:37.897Z,98986.28
2023-04-07T21:04:07.606Z,98988.34
2023-04-07T21:06:37.209Z,98988.03
2023-04-07T21:09:10.085Z,98988.25
2023-04-07T21:11:40.213Z,98988.22
2023-04-07T21:14:09.263Z,98988.16
2023-04-07T21:16:38.585Z,98981.66
2023-04-07T21:19:08.595Z,98981.31
2023-04-07T21:21:37.935Z,98970.00
2023-04-07T21:24:07.469Z,98971.56
2023-04-07T21:26:37.301Z,98968.06
2023-04-07T21:29:06.628Z,98972.78
2023-04-07T21:31:36.425Z,98973.06
2023-04-07T21:34:05.487Z,98970.06
2023-04-07T21:36:35.073Z,98970.31
2023-04-07T21:39:04.419Z,98970.53
2023-04-07T21:41:33.783Z,98974.56
2023-04-07T21:44:03.523Z,98969.38
2023-04-07T21:46:34.461Z,98967.19
2023-04-07T21:49:03.878Z,98969.06
2023-04-07T21:51:34.874Z,98961.16
2023-04-07T21:54:04.908Z,98966.53
2023-04-07T21:56:34.613Z,98963.84
2023-04-07T21:59:05.341Z,98967.88
2023-04-07T22:01:35.190Z,98961.94
2023-04-07T22:04:04.603Z,98974.56
2023-04-07T22:06:34.055Z,98963.00
2023-04-07T22:09:03.739Z,98958.09
2023-04-07T22:11:34.588Z,98953.78
2023-04-07T22:14:03.745Z,98953.78
2023-04-07T22:16:33.641Z,98953.78
2023-04-07T22:19:03.945Z,98954.84
2023-04-07T22:21:37.415Z,98956.66
2023-04-07T22:24:06.679Z,98964.22
2023-04-07T22:26:36.217Z,98957.47
2023-04-07T22:29:06.054Z,98947.75
2023-04-07T22:31:35.660Z,98946.47
2023-04-07T22:34:05.622Z,98945.66
2023-04-07T22:36:35.696Z,98944.53
2023-04-07T22:39:05.683Z,98951.69
2023-04-07T22:41:34.776Z,98950.31
2023-04-07T22:44:04.815Z,98949.44
2023-04-07T22:46:33.930Z,98947.28
2023-04-07T22:49:03.238Z,98948.28
2023-04-07T22:51:32.649Z,98951.53
2023-04-07T22:54:02.013Z,98950.97
2023-04-07T22:56:32.607Z,98948.75
2023-04-07T22:59:06.344Z,98942.84
2023-04-07T23:01:36.610Z,98944.72
2023-04-07T23:04:06.207Z,98943.16
2023-04-07T23:06:35.814Z,98956.44
2023-04-07T23:09:05.253Z,98950.16
2023-04-07T23:11:34.822Z,98950.78
2023-04-07T23:14:07.248Z,98959.91
2023-04-07T23:16:36.927Z,98957.56
2023-04-07T23:19:07.242Z,98955.34
2023-04-07T23:21:36.482Z,98957.22
2023-04-07T23:24:06.142Z,98953.75
2023-04-07T23:26:35.424Z,98954.72
2023-04-07T23:29:04.732Z,98960.84
2023-04-07T23:31:34.154Z,98960.09
2023-04-07T23:34:05.691Z,98957.00
2023-04-07T23:36:35.815Z,98956.19
2023-04-07T23:39:05.541Z,98952.19
2023-04-07T23:41:34.764Z,98959.63
2023-04-07T23:44:04.956Z,98968.53
2023-04-07T23:46:34.878Z,98973.56
2023-04-07T23:49:04.953Z,98969.75
2023-04-07T23:51:34.166Z,98971.84
2023-04-07T23:54:03.363Z,98978.53
2023-04-07T23:56:33.543Z,98973.06
2023-04-07T23:59:03.169Z,98974.59
